Flight Track Log - Related Links

Times and Time Zones

All times are in EDT time to prevent confusion due to time zone crossing. See the USC105 flight status page for this flight to view local times or setup timezone preferences in your user account.

Time Position Orientation Groundspeed Altitude Reporting Facility
EDT Latitude Longitude Course Direction KTS MPH feet Rate Location/Type
Mon 11:14:03 PM 41.5606 -81.7014 333° Northwest 123 142 2,200  Level Cleveland Center
Mon 11:15:04 PM 41.5894 -81.7297 324° Northwest 130 150 3,200 992 Climbing Cleveland Center
Mon 11:16:04 PM 41.5994 -81.7800 285° West 149 171 4,200 992 Climbing Cleveland Center
Mon 11:17:05 PM 41.6156 -81.8303 293° West 143 165 5,200 893 Climbing Cleveland Center
Mon 11:18:05 PM 41.6317 -81.8806 293° West 146 168 6,000 378 Climbing Cleveland Center
Mon 11:19:12 PM 41.6517 -81.9503 291° West 188 216 6,000  Level Cleveland Center
Mon 11:20:13 PM 41.6694 -82.0175 290° West 189 217 6,000  Level Cleveland Center
Mon 11:21:19 PM 41.6936 -82.0875 295° West 202 232 6,000 45 Level Cleveland Center
Mon 11:22:25 PM 41.7178 -82.1603 294° West 199 229 6,100  Climbing Cleveland Center
Mon 11:23:25 PM 41.7375 -82.2417 288° West 204 235 6,000 -50 Descending Cleveland Center
Mon 11:24:26 PM 41.7592 -82.3117 293° West 204 235 6,000  Level Cleveland Center
Mon 11:25:26 PM 41.7792 -82.3819 291° West 204 235 6,000  Level Cleveland Center
Mon 11:26:27 PM 41.7989 -82.4519 291° West 203 234 6,000  Level Cleveland Center
Mon 11:27:28 PM 41.8206 -82.5253 292° West 203 234 6,000  Level Cleveland Center
Mon 11:28:28 PM 41.8361 -82.5953 287° West 202 232 6,000  Level Cleveland Center
Mon 11:29:35 PM 41.8681 -82.6661 301° West 199 229 6,000  Level Cleveland Center
Mon 11:30:36 PM 41.8981 -82.7283 303° West 200 230 6,000  Level Cleveland Center
Mon 11:31:42 PM 41.9303 -82.7992 301° West 199 229 6,000  Level Cleveland Center
Mon 11:32:37 PM 41.9519 -82.8586 296° West 200 230 6,000  Level Cleveland Center
Mon 11:33:37 PM 41.9819 -82.9239 302° West 201 231 6,000 -248 Level Cleveland Center
Mon 11:34:38 PM 42.0033 -82.9947 292° West 214 246 5,500 -541 Descending Cleveland Center
Mon 11:35:39 PM 42.0247 -83.0736 290° West 226 260 4,900 -595 Descending Cleveland Center
Mon 11:36:39 PM 42.0417 -83.1556 286° West 221 254 4,300 -446 Descending Cleveland Center
Mon 11:37:40 PM 42.0564 -83.2400 283° West 225 259 4,000 -149 Descending Cleveland Center
Mon 11:38:40 PM 42.0733 -83.3161 287° West 213 245 4,000  Level Cleveland Center
Mon 11:39:41 PM 42.0903 -83.3925 287° West 205 236 4,000  Level Cleveland Center
Mon 11:40:42 PM 42.1031 -83.4603 284° West 194 223 4,000  Level Cleveland Center
Mon 11:41:48 PM 42.1181 -83.5308 286° West 179 206 4,000 -236 Level Cleveland Center
Mon 11:42:49 PM 42.1311 -83.5931 286° West 173 199 3,500 -639 Descending Cleveland Center
Mon 11:43:50 PM 42.1633 -83.6283 321° Northwest 141 162 2,700 -744 Descending Cleveland Center
Mon 11:44:50 PM 42.1933 -83.5989 36° Northeast 129 148 2,000 -730 Descending Cleveland Center
Mon 11:45:45 PM 42.2172 -83.5664 45° Northeast 122 140 1,300 -764 Descending Cleveland Center
Mon 11:47:00 PM 42.2393 -83.5310 88° East  Level Estimated
Mon 11:54:00 PM 42.2393 -83.5310 90° East  Level Estimated
Mon 11:55:00 PM 42.2393 -83.5310 90° East  Level Estimated

Login

Don't have an account? Register now (free) for customized features, flight alerts, and more!